sensor_id;sensor_type;location;lat;lon;timestamp;P1;durP1;ratioP1;P2;durP2;ratioP2
15022;SDS011;19850;49.576;10.880;2022-09-30T00:02:06;0.10;;;0.10;;
15022;SDS011;19850;49.576;10.880;2022-09-30T00:06:10;0.10;;;0.10;;
15022;SDS011;19850;49.576;10.880;2022-09-30T00:10:12;0.10;;;0.10;;
15022;SDS011;19850;49.576;10.880;2022-09-30T00:14:21;0.10;;;0.10;;
15022;SDS011;19850;49.576;10.880;2022-09-30T00:18:24;0.10;;;0.10;;
15022;SDS011;19850;49.576;10.880;2022-09-30T00:22:27;0.10;;;0.10;;
15022;SDS011;19850;49.576;10.880;2022-09-30T00:26:30;0.10;;;0.10;;
15022;SDS011;19850;49.576;10.880;2022-09-30T00:30:35;0.10;;;0.10;;
15022;SDS011;19850;49.576;10.880;2022-09-30T00:34:38;0.10;;;0.10;;
15022;SDS011;19850;49.576;10.880;2022-09-30T00:38:40;0.10;;;0.10;;
15022;SDS011;19850;49.576;10.880;2022-09-30T00:42:43;0.10;;;0.10;;
15022;SDS011;19850;49.576;10.880;2022-09-30T00:46:47;0.10;;;0.10;;
15022;SDS011;19850;49.576;10.880;2022-09-30T00:50:50;0.10;;;0.10;;
15022;SDS011;19850;49.576;10.880;2022-09-30T00:54:55;0.10;;;0.10;;
15022;SDS011;19850;49.576;10.880;2022-09-30T00:59:01;0.10;;;0.10;;
15022;SDS011;19850;49.576;10.880;2022-09-30T01:03:08;0.10;;;0.10;;
15022;SDS011;19850;49.576;10.880;2022-09-30T01:07:11;0.10;;;0.10;;
15022;SDS011;19850;49.576;10.880;2022-09-30T01:11:14;0.10;;;0.10;;
15022;SDS011;19850;49.576;10.880;2022-09-30T01:15:18;0.10;;;0.10;;
15022;SDS011;19850;49.576;10.880;2022-09-30T01:19:25;0.10;;;0.10;;
15022;SDS011;19850;49.576;10.880;2022-09-30T01:23:46;0.10;;;0.10;;
15022;SDS011;19850;49.576;10.880;2022-09-30T01:28:12;0.10;;;0.10;;
15022;SDS011;19850;49.576;10.880;2022-09-30T01:32:40;0.10;;;0.10;;
15022;SDS011;19850;49.576;10.880;2022-09-30T01:36:51;0.10;;;0.10;;
15022;SDS011;19850;49.576;10.880;2022-09-30T01:41:04;0.10;;;0.10;;
15022;SDS011;19850;49.576;10.880;2022-09-30T01:45:11;0.13;;;0.13;;
15022;SDS011;19850;49.576;10.880;2022-09-30T01:49:19;0.10;;;0.10;;
15022;SDS011;19850;49.576;10.880;2022-09-30T01:53:27;0.10;;;0.10;;
15022;SDS011;19850;49.576;10.880;2022-09-30T01:57:34;0.00;;;0.00;;
15022;SDS011;19850;49.576;10.880;2022-09-30T02:01:45;0.00;;;0.00;;
15022;SDS011;19850;49.576;10.880;2022-09-30T02:05:53;0.10;;;0.10;;
15022;SDS011;19850;49.576;10.880;2022-09-30T02:09:58;0.10;;;0.10;;
15022;SDS011;19850;49.576;10.880;2022-09-30T02:14:03;0.10;;;0.10;;
15022;SDS011;19850;49.576;10.880;2022-09-30T02:18:09;0.10;;;0.10;;
15022;SDS011;19850;49.576;10.880;2022-09-30T02:22:17;0.10;;;0.10;;
15022;SDS011;19850;49.576;10.880;2022-09-30T02:26:23;0.10;;;0.10;;
15022;SDS011;19850;49.576;10.880;2022-09-30T02:30:27;0.10;;;0.10;;
15022;SDS011;19850;49.576;10.880;2022-09-30T02:34:30;0.10;;;0.10;;
15022;SDS011;19850;49.576;10.880;2022-09-30T02:38:37;0.10;;;0.10;;
15022;SDS011;19850;49.576;10.880;2022-09-30T02:42:42;0.10;;;0.10;;
15022;SDS011;19850;49.576;10.880;2022-09-30T02:46:47;0.10;;;0.10;;
15022;SDS011;19850;49.576;10.880;2022-09-30T02:50:57;0.10;;;0.10;;
15022;SDS011;19850;49.576;10.880;2022-09-30T02:55:07;0.10;;;0.10;;
15022;SDS011;19850;49.576;10.880;2022-09-30T02:59:16;0.10;;;0.10;;
15022;SDS011;19850;49.576;10.880;2022-09-30T03:03:20;0.20;;;0.20;;
15022;SDS011;19850;49.576;10.880;2022-09-30T03:07:25;0.10;;;0.10;;
15022;SDS011;19850;49.576;10.880;2022-09-30T03:11:29;0.10;;;0.10;;
15022;SDS011;19850;49.576;10.880;2022-09-30T03:15:35;0.10;;;0.10;;
15022;SDS011;19850;49.576;10.880;2022-09-30T03:19:54;0.10;;;0.10;;
15022;SDS011;19850;49.576;10.880;2022-09-30T03:24:25;0.10;;;0.10;;
15022;SDS011;19850;49.576;10.880;2022-09-30T03:28:34;0.10;;;0.10;;
15022;SDS011;19850;49.576;10.880;2022-09-30T03:32:48;0.10;;;0.10;;
15022;SDS011;19850;49.576;10.880;2022-09-30T03:37:04;0.10;;;0.10;;
15022;SDS011;19850;49.576;10.880;2022-09-30T03:41:15;0.10;;;0.10;;
15022;SDS011;19850;49.576;10.880;2022-09-30T03:45:22;0.10;;;0.10;;
15022;SDS011;19850;49.576;10.880;2022-09-30T03:49:27;0.10;;;0.10;;
15022;SDS011;19850;49.576;10.880;2022-09-30T03:53:36;0.10;;;0.10;;
15022;SDS011;19850;49.576;10.880;2022-09-30T03:57:39;0.10;;;0.10;;
15022;SDS011;19850;49.576;10.880;2022-09-30T04:01:45;0.10;;;0.10;;
15022;SDS011;19850;49.576;10.880;2022-09-30T04:05:48;0.10;;;0.10;;
15022;SDS011;19850;49.576;10.880;2022-09-30T04:09:51;0.10;;;0.10;;
15022;SDS011;19850;49.576;10.880;2022-09-30T04:13:54;0.10;;;0.10;;
15022;SDS011;19850;49.576;10.880;2022-09-30T04:17:58;0.10;;;0.10;;
15022;SDS011;19850;49.576;10.880;2022-09-30T04:22:01;0.10;;;0.10;;
15022;SDS011;19850;49.576;10.880;2022-09-30T04:26:04;0.10;;;0.10;;
15022;SDS011;19850;49.576;10.880;2022-09-30T04:30:07;0.10;;;0.10;;
15022;SDS011;19850;49.576;10.880;2022-09-30T04:34:12;0.10;;;0.10;;
15022;SDS011;19850;49.576;10.880;2022-09-30T04:38:15;0.10;;;0.10;;
15022;SDS011;19850;49.576;10.880;2022-09-30T04:42:18;0.10;;;0.10;;
15022;SDS011;19850;49.576;10.880;2022-09-30T04:46:21;0.10;;;0.10;;
15022;SDS011;19850;49.576;10.880;2022-09-30T04:50:25;0.10;;;0.10;;
15022;SDS011;19850;49.576;10.880;2022-09-30T04:54:28;0.10;;;0.10;;
15022;SDS011;19850;49.576;10.880;2022-09-30T04:58:30;0.10;;;0.10;;
15022;SDS011;19850;49.576;10.880;2022-09-30T05:02:37;0.10;;;0.10;;
15022;SDS011;19850;49.576;10.880;2022-09-30T05:06:41;0.10;;;0.10;;
15022;SDS011;19850;49.576;10.880;2022-09-30T05:10:44;0.10;;;0.10;;
15022;SDS011;19850;49.576;10.880;2022-09-30T05:14:55;0.10;;;0.10;;
15022;SDS011;19850;49.576;10.880;2022-09-30T05:18:57;0.20;;;0.20;;
15022;SDS011;19850;49.576;10.880;2022-09-30T05:23:02;0.27;;;0.27;;
15022;SDS011;19850;49.576;10.880;2022-09-30T05:27:06;0.30;;;0.30;;
15022;SDS011;19850;49.576;10.880;2022-09-30T05:31:09;0.10;;;0.10;;
15022;SDS011;19850;49.576;10.880;2022-09-30T05:35:13;0.20;;;0.20;;
15022;SDS011;19850;49.576;10.880;2022-09-30T05:39:18;0.10;;;0.10;;
15022;SDS011;19850;49.576;10.880;2022-09-30T05:43:21;0.20;;;0.20;;
15022;SDS011;19850;49.576;10.880;2022-09-30T05:47:24;0.10;;;0.10;;
15022;SDS011;19850;49.576;10.880;2022-09-30T05:51:26;0.10;;;0.10;;
15022;SDS011;19850;49.576;10.880;2022-09-30T05:55:30;0.10;;;0.10;;
15022;SDS011;19850;49.576;10.880;2022-09-30T05:59:39;0.10;;;0.10;;
15022;SDS011;19850;49.576;10.880;2022-09-30T06:03:42;0.10;;;0.10;;
15022;SDS011;19850;49.576;10.880;2022-09-30T06:07:45;0.10;;;0.10;;
15022;SDS011;19850;49.576;10.880;2022-09-30T06:11:49;0.10;;;0.10;;
15022;SDS011;19850;49.576;10.880;2022-09-30T06:15:55;0.20;;;0.20;;
15022;SDS011;19850;49.576;10.880;2022-09-30T06:19:58;0.10;;;0.10;;
15022;SDS011;19850;49.576;10.880;2022-09-30T06:24:02;0.10;;;0.10;;
15022;SDS011;19850;49.576;10.880;2022-09-30T06:28:06;0.10;;;0.10;;
15022;SDS011;19850;49.576;10.880;2022-09-30T06:32:09;0.10;;;0.10;;
15022;SDS011;19850;49.576;10.880;2022-09-30T06:36:12;0.10;;;0.10;;
15022;SDS011;19850;49.576;10.880;2022-09-30T06:40:14;0.10;;;0.10;;
15022;SDS011;19850;49.576;10.880;2022-09-30T06:44:19;0.10;;;0.10;;
15022;SDS011;19850;49.576;10.880;2022-09-30T06:48:21;0.10;;;0.10;;
15022;SDS011;19850;49.576;10.880;2022-09-30T06:52:37;0.10;;;0.10;;
15022;SDS011;19850;49.576;10.880;2022-09-30T06:56:40;0.00;;;0.00;;
15022;SDS011;19850;49.576;10.880;2022-09-30T07:00:44;0.10;;;0.10;;
15022;SDS011;19850;49.576;10.880;2022-09-30T07:04:47;0.10;;;0.10;;
15022;SDS011;19850;49.576;10.880;2022-09-30T07:08:50;0.10;;;0.10;;
15022;SDS011;19850;49.576;10.880;2022-09-30T07:12:53;0.33;;;0.33;;
15022;SDS011;19850;49.576;10.880;2022-09-30T07:16:57;0.10;;;0.10;;
15022;SDS011;19850;49.576;10.880;2022-09-30T07:21:02;0.10;;;0.10;;
15022;SDS011;19850;49.576;10.880;2022-09-30T07:25:06;0.10;;;0.10;;
15022;SDS011;19850;49.576;10.880;2022-09-30T07:29:09;0.10;;;0.10;;
15022;SDS011;19850;49.576;10.880;2022-09-30T07:33:15;0.10;;;0.10;;
15022;SDS011;19850;49.576;10.880;2022-09-30T07:37:18;0.10;;;0.10;;
15022;SDS011;19850;49.576;10.880;2022-09-30T07:41:23;0.10;;;0.10;;
15022;SDS011;19850;49.576;10.880;2022-09-30T07:45:27;0.23;;;0.23;;
15022;SDS011;19850;49.576;10.880;2022-09-30T07:49:31;0.10;;;0.10;;
15022;SDS011;19850;49.576;10.880;2022-09-30T07:53:34;0.10;;;0.10;;
15022;SDS011;19850;49.576;10.880;2022-09-30T07:57:37;0.10;;;0.10;;
15022;SDS011;19850;49.576;10.880;2022-09-30T08:01:40;0.10;;;0.10;;
15022;SDS011;19850;49.576;10.880;2022-09-30T08:05:44;0.10;;;0.10;;
15022;SDS011;19850;49.576;10.880;2022-09-30T08:09:48;0.20;;;0.20;;
15022;SDS011;19850;49.576;10.880;2022-09-30T08:13:51;0.10;;;0.10;;
15022;SDS011;19850;49.576;10.880;2022-09-30T08:17:55;0.10;;;0.10;;
15022;SDS011;19850;49.576;10.880;2022-09-30T08:21:59;0.00;;;0.00;;
15022;SDS011;19850;49.576;10.880;2022-09-30T08:26:08;0.10;;;0.10;;
15022;SDS011;19850;49.576;10.880;2022-09-30T08:30:12;0.10;;;0.10;;
15022;SDS011;19850;49.576;10.880;2022-09-30T08:34:15;0.10;;;0.10;;
15022;SDS011;19850;49.576;10.880;2022-09-30T08:38:20;0.10;;;0.10;;
15022;SDS011;19850;49.576;10.880;2022-09-30T08:42:28;0.07;;;0.07;;
15022;SDS011;19850;49.576;10.880;2022-09-30T08:46:43;0.10;;;0.10;;
15022;SDS011;19850;49.576;10.880;2022-09-30T08:50:52;0.10;;;0.10;;
15022;SDS011;19850;49.576;10.880;2022-09-30T08:55:04;0.10;;;0.10;;
15022;SDS011;19850;49.576;10.880;2022-09-30T08:59:22;0.00;;;0.00;;
15022;SDS011;19850;49.576;10.880;2022-09-30T09:03:29;0.00;;;0.00;;
15022;SDS011;19850;49.576;10.880;2022-09-30T09:07:37;0.00;;;0.00;;
15022;SDS011;19850;49.576;10.880;2022-09-30T09:11:48;0.00;;;0.00;;
15022;SDS011;19850;49.576;10.880;2022-09-30T09:16:00;0.00;;;0.00;;
15022;SDS011;19850;49.576;10.880;2022-09-30T09:20:08;0.10;;;0.10;;
15022;SDS011;19850;49.576;10.880;2022-09-30T09:24:16;0.00;;;0.00;;
15022;SDS011;19850;49.576;10.880;2022-09-30T09:28:24;0.00;;;0.00;;
15022;SDS011;19850;49.576;10.880;2022-09-30T09:32:31;0.00;;;0.00;;
15022;SDS011;19850;49.576;10.880;2022-09-30T09:36:37;0.00;;;0.00;;
15022;SDS011;19850;49.576;10.880;2022-09-30T09:40:48;0.00;;;0.00;;
15022;SDS011;19850;49.576;10.880;2022-09-30T09:45:01;0.00;;;0.00;;
15022;SDS011;19850;49.576;10.880;2022-09-30T09:49:26;0.00;;;0.00;;
15022;SDS011;19850;49.576;10.880;2022-09-30T09:53:38;0.10;;;0.10;;
15022;SDS011;19850;49.576;10.880;2022-09-30T09:57:44;0.00;;;0.00;;
15022;SDS011;19850;49.576;10.880;2022-09-30T10:01:49;0.00;;;0.00;;
15022;SDS011;19850;49.576;10.880;2022-09-30T10:05:58;0.00;;;0.00;;
15022;SDS011;19850;49.576;10.880;2022-09-30T10:10:07;0.00;;;0.00;;
15022;SDS011;19850;49.576;10.880;2022-09-30T10:14:15;0.00;;;0.00;;
15022;SDS011;19850;49.576;10.880;2022-09-30T10:18:22;0.00;;;0.00;;
15022;SDS011;19850;49.576;10.880;2022-09-30T10:22:27;0.03;;;0.03;;
15022;SDS011;19850;49.576;10.880;2022-09-30T10:26:34;0.00;;;0.00;;
15022;SDS011;19850;49.576;10.880;2022-09-30T10:30:50;0.00;;;0.00;;
15022;SDS011;19850;49.576;10.880;2022-09-30T10:34:58;0.00;;;0.00;;
15022;SDS011;19850;49.576;10.880;2022-09-30T10:39:05;0.00;;;0.00;;
15022;SDS011;19850;49.576;10.880;2022-09-30T10:43:16;0.00;;;0.00;;
15022;SDS011;19850;49.576;10.880;2022-09-30T10:47:23;0.00;;;0.00;;
15022;SDS011;19850;49.576;10.880;2022-09-30T10:51:29;0.00;;;0.00;;
15022;SDS011;19850;49.576;10.880;2022-09-30T10:55:35;0.00;;;0.00;;
15022;SDS011;19850;49.576;10.880;2022-09-30T10:59:43;0.00;;;0.00;;
15022;SDS011;19850;49.576;10.880;2022-09-30T11:03:58;0.00;;;0.00;;
15022;SDS011;19850;49.576;10.880;2022-09-30T11:08:09;0.00;;;0.00;;
15022;SDS011;19850;49.576;10.880;2022-09-30T11:12:16;0.00;;;0.00;;
15022;SDS011;19850;49.576;10.880;2022-09-30T11:16:25;0.00;;;0.00;;
15022;SDS011;19850;49.576;10.880;2022-09-30T11:20:33;0.00;;;0.00;;
15022;SDS011;19850;49.576;10.880;2022-09-30T11:24:43;0.00;;;0.00;;
15022;SDS011;19850;49.576;10.880;2022-09-30T11:28:51;0.00;;;0.00;;
15022;SDS011;19850;49.576;10.880;2022-09-30T11:33:05;0.00;;;0.00;;
15022;SDS011;19850;49.576;10.880;2022-09-30T11:37:19;0.00;;;0.00;;
15022;SDS011;19850;49.576;10.880;2022-09-30T11:41:29;0.00;;;0.00;;
15022;SDS011;19850;49.576;10.880;2022-09-30T11:45:37;0.00;;;0.00;;
15022;SDS011;19850;49.576;10.880;2022-09-30T11:49:51;0.00;;;0.00;;
15022;SDS011;19850;49.576;10.880;2022-09-30T11:54:03;0.00;;;0.00;;
15022;SDS011;19850;49.576;10.880;2022-09-30T11:58:19;0.00;;;0.00;;
15022;SDS011;19850;49.576;10.880;2022-09-30T12:02:42;0.00;;;0.00;;
15022;SDS011;19850;49.576;10.880;2022-09-30T12:06:48;0.00;;;0.00;;
15022;SDS011;19850;49.576;10.880;2022-09-30T12:10:54;0.00;;;0.00;;
15022;SDS011;19850;49.576;10.880;2022-09-30T12:15:00;0.00;;;0.00;;
15022;SDS011;19850;49.576;10.880;2022-09-30T12:19:10;0.00;;;0.00;;
15022;SDS011;19850;49.576;10.880;2022-09-30T12:23:16;0.00;;;0.00;;
15022;SDS011;19850;49.576;10.880;2022-09-30T12:27:23;0.00;;;0.00;;
15022;SDS011;19850;49.576;10.880;2022-09-30T12:31:38;0.00;;;0.00;;
15022;SDS011;19850;49.576;10.880;2022-09-30T12:35:57;0.00;;;0.00;;
15022;SDS011;19850;49.576;10.880;2022-09-30T12:40:19;0.00;;;0.00;;
15022;SDS011;19850;49.576;10.880;2022-09-30T12:48:59;0.00;;;0.00;;
15022;SDS011;19850;49.576;10.880;2022-09-30T12:53:08;0.00;;;0.00;;
15022;SDS011;19850;49.576;10.880;2022-09-30T12:57:17;0.00;;;0.00;;
15022;SDS011;19850;49.576;10.880;2022-09-30T13:01:22;0.00;;;0.00;;
15022;SDS011;19850;49.576;10.880;2022-09-30T13:05:46;0.00;;;0.00;;
15022;SDS011;19850;49.576;10.880;2022-09-30T13:14:29;0.00;;;0.00;;
15022;SDS011;19850;49.576;10.880;2022-09-30T13:23:03;0.00;;;0.00;;
15022;SDS011;19850;49.576;10.880;2022-09-30T13:27:06;0.00;;;0.00;;
15022;SDS011;19850;49.576;10.880;2022-09-30T13:31:15;0.00;;;0.00;;
15022;SDS011;19850;49.576;10.880;2022-09-30T13:35:32;0.00;;;0.00;;
15022;SDS011;19850;49.576;10.880;2022-09-30T13:39:43;0.00;;;0.00;;
15022;SDS011;19850;49.576;10.880;2022-09-30T13:43:52;0.00;;;0.00;;
15022;SDS011;19850;49.576;10.880;2022-09-30T13:48:06;0.00;;;0.00;;
15022;SDS011;19850;49.576;10.880;2022-09-30T13:52:14;0.00;;;0.00;;
15022;SDS011;19850;49.576;10.880;2022-09-30T13:56:22;0.00;;;0.00;;
15022;SDS011;19850;49.576;10.880;2022-09-30T14:00:28;0.00;;;0.00;;
15022;SDS011;19850;49.576;10.880;2022-09-30T14:04:45;0.00;;;0.00;;
15022;SDS011;19850;49.576;10.880;2022-09-30T14:09:07;0.00;;;0.00;;
15022;SDS011;19850;49.576;10.880;2022-09-30T14:13:23;0.00;;;0.00;;
15022;SDS011;19850;49.576;10.880;2022-09-30T14:17:36;0.00;;;0.00;;
15022;SDS011;19850;49.576;10.880;2022-09-30T14:21:43;0.00;;;0.00;;
15022;SDS011;19850;49.576;10.880;2022-09-30T14:25:51;0.00;;;0.00;;
15022;SDS011;19850;49.576;10.880;2022-09-30T14:30:02;0.00;;;0.00;;
15022;SDS011;19850;49.576;10.880;2022-09-30T14:34:07;0.00;;;0.00;;
15022;SDS011;19850;49.576;10.880;2022-09-30T14:38:13;0.00;;;0.00;;
15022;SDS011;19850;49.576;10.880;2022-09-30T14:42:21;0.00;;;0.00;;
15022;SDS011;19850;49.576;10.880;2022-09-30T14:46:33;0.00;;;0.00;;
15022;SDS011;19850;49.576;10.880;2022-09-30T14:50:39;0.00;;;0.00;;
15022;SDS011;19850;49.576;10.880;2022-09-30T14:54:45;0.00;;;0.00;;
15022;SDS011;19850;49.576;10.880;2022-09-30T14:58:48;0.00;;;0.00;;
15022;SDS011;19850;49.576;10.880;2022-09-30T15:02:54;0.00;;;0.00;;
15022;SDS011;19850;49.576;10.880;2022-09-30T15:06:57;0.00;;;0.00;;
15022;SDS011;19850;49.576;10.880;2022-09-30T15:11:01;0.00;;;0.00;;
15022;SDS011;19850;49.576;10.880;2022-09-30T15:19:30;0.00;;;0.00;;
15022;SDS011;19850;49.576;10.880;2022-09-30T15:23:35;0.00;;;0.00;;
15022;SDS011;19850;49.576;10.880;2022-09-30T15:27:40;0.00;;;0.00;;
15022;SDS011;19850;49.576;10.880;2022-09-30T15:31:44;0.00;;;0.00;;
15022;SDS011;19850;49.576;10.880;2022-09-30T15:35:49;0.00;;;0.00;;
15022;SDS011;19850;49.576;10.880;2022-09-30T15:39:53;0.00;;;0.00;;
15022;SDS011;19850;49.576;10.880;2022-09-30T15:44:15;0.00;;;0.00;;
15022;SDS011;19850;49.576;10.880;2022-09-30T15:48:31;0.00;;;0.00;;
15022;SDS011;19850;49.576;10.880;2022-09-30T15:52:37;0.00;;;0.00;;
15022;SDS011;19850;49.576;10.880;2022-09-30T15:56:41;0.00;;;0.00;;
15022;SDS011;19850;49.576;10.880;2022-09-30T16:00:44;0.00;;;0.00;;
15022;SDS011;19850;49.576;10.880;2022-09-30T16:04:49;0.00;;;0.00;;
15022;SDS011;19850;49.576;10.880;2022-09-30T16:08:56;0.00;;;0.00;;
15022;SDS011;19850;49.576;10.880;2022-09-30T16:13:01;0.00;;;0.00;;
15022;SDS011;19850;49.576;10.880;2022-09-30T16:17:05;0.00;;;0.00;;
15022;SDS011;19850;49.576;10.880;2022-09-30T16:21:22;0.00;;;0.00;;
15022;SDS011;19850;49.576;10.880;2022-09-30T16:25:31;0.00;;;0.00;;
15022;SDS011;19850;49.576;10.880;2022-09-30T16:29:34;0.00;;;0.00;;
15022;SDS011;19850;49.576;10.880;2022-09-30T16:33:39;0.00;;;0.00;;
15022;SDS011;19850;49.576;10.880;2022-09-30T16:37:44;0.00;;;0.00;;
15022;SDS011;19850;49.576;10.880;2022-09-30T16:41:50;0.00;;;0.00;;
15022;SDS011;19850;49.576;10.880;2022-09-30T16:45:54;0.00;;;0.00;;
15022;SDS011;19850;49.576;10.880;2022-09-30T16:49:58;0.00;;;0.00;;
15022;SDS011;19850;49.576;10.880;2022-09-30T16:54:01;0.00;;;0.00;;
15022;SDS011;19850;49.576;10.880;2022-09-30T16:58:08;0.00;;;0.00;;
15022;SDS011;19850;49.576;10.880;2022-09-30T17:02:13;0.00;;;0.00;;
15022;SDS011;19850;49.576;10.880;2022-09-30T17:06:17;0.00;;;0.00;;
15022;SDS011;19850;49.576;10.880;2022-09-30T17:10:22;0.10;;;0.00;;
15022;SDS011;19850;49.576;10.880;2022-09-30T17:14:27;0.07;;;0.07;;
15022;SDS011;19850;49.576;10.880;2022-09-30T17:18:30;0.00;;;0.00;;
15022;SDS011;19850;49.576;10.880;2022-09-30T17:22:33;0.00;;;0.00;;
15022;SDS011;19850;49.576;10.880;2022-09-30T17:26:36;0.03;;;0.03;;
15022;SDS011;19850;49.576;10.880;2022-09-30T17:30:41;0.10;;;0.10;;
15022;SDS011;19850;49.576;10.880;2022-09-30T17:34:44;0.00;;;0.00;;
15022;SDS011;19850;49.576;10.880;2022-09-30T17:38:51;0.00;;;0.00;;
15022;SDS011;19850;49.576;10.880;2022-09-30T17:42:55;0.00;;;0.00;;
15022;SDS011;19850;49.576;10.880;2022-09-30T17:47:12;0.00;;;0.00;;
15022;SDS011;19850;49.576;10.880;2022-09-30T17:51:15;0.00;;;0.00;;
15022;SDS011;19850;49.576;10.880;2022-09-30T17:55:18;0.00;;;0.00;;
15022;SDS011;19850;49.576;10.880;2022-09-30T17:59:21;0.00;;;0.00;;
15022;SDS011;19850;49.576;10.880;2022-09-30T18:03:27;0.00;;;0.00;;
15022;SDS011;19850;49.576;10.880;2022-09-30T18:07:30;0.00;;;0.00;;
15022;SDS011;19850;49.576;10.880;2022-09-30T18:11:33;0.00;;;0.00;;
15022;SDS011;19850;49.576;10.880;2022-09-30T18:15:43;0.00;;;0.00;;
15022;SDS011;19850;49.576;10.880;2022-09-30T18:19:48;0.00;;;0.00;;
15022;SDS011;19850;49.576;10.880;2022-09-30T18:23:51;0.00;;;0.00;;
15022;SDS011;19850;49.576;10.880;2022-09-30T18:27:55;0.00;;;0.00;;
15022;SDS011;19850;49.576;10.880;2022-09-30T18:31:59;0.00;;;0.00;;
15022;SDS011;19850;49.576;10.880;2022-09-30T18:36:04;0.00;;;0.00;;
15022;SDS011;19850;49.576;10.880;2022-09-30T18:40:07;0.00;;;0.00;;
15022;SDS011;19850;49.576;10.880;2022-09-30T18:44:11;0.00;;;0.00;;
15022;SDS011;19850;49.576;10.880;2022-09-30T18:48:14;0.00;;;0.00;;
15022;SDS011;19850;49.576;10.880;2022-09-30T18:52:19;0.00;;;0.00;;
15022;SDS011;19850;49.576;10.880;2022-09-30T18:56:22;0.00;;;0.00;;
15022;SDS011;19850;49.576;10.880;2022-09-30T19:00:26;0.10;;;0.10;;
15022;SDS011;19850;49.576;10.880;2022-09-30T19:04:31;0.00;;;0.00;;
15022;SDS011;19850;49.576;10.880;2022-09-30T19:08:35;0.00;;;0.00;;
15022;SDS011;19850;49.576;10.880;2022-09-30T19:12:38;0.07;;;0.07;;
15022;SDS011;19850;49.576;10.880;2022-09-30T19:16:44;0.00;;;0.00;;
15022;SDS011;19850;49.576;10.880;2022-09-30T19:20:48;0.00;;;0.00;;
15022;SDS011;19850;49.576;10.880;2022-09-30T19:24:52;0.00;;;0.00;;
15022;SDS011;19850;49.576;10.880;2022-09-30T19:28:55;0.00;;;0.00;;
15022;SDS011;19850;49.576;10.880;2022-09-30T19:32:58;0.00;;;0.00;;
15022;SDS011;19850;49.576;10.880;2022-09-30T19:37:01;0.10;;;0.10;;
15022;SDS011;19850;49.576;10.880;2022-09-30T19:41:05;0.10;;;0.10;;
15022;SDS011;19850;49.576;10.880;2022-09-30T19:45:09;0.10;;;0.10;;
15022;SDS011;19850;49.576;10.880;2022-09-30T19:49:12;0.00;;;0.00;;
15022;SDS011;19850;49.576;10.880;2022-09-30T19:53:15;0.10;;;0.10;;
15022;SDS011;19850;49.576;10.880;2022-09-30T19:57:33;0.00;;;0.00;;
15022;SDS011;19850;49.576;10.880;2022-09-30T20:01:36;0.10;;;0.10;;
15022;SDS011;19850;49.576;10.880;2022-09-30T20:05:39;0.00;;;0.00;;
15022;SDS011;19850;49.576;10.880;2022-09-30T20:09:44;0.00;;;0.00;;
15022;SDS011;19850;49.576;10.880;2022-09-30T20:13:49;0.00;;;0.00;;
15022;SDS011;19850;49.576;10.880;2022-09-30T20:18:13;0.10;;;0.10;;
15022;SDS011;19850;49.576;10.880;2022-09-30T20:22:16;0.00;;;0.00;;
15022;SDS011;19850;49.576;10.880;2022-09-30T20:26:18;0.10;;;0.10;;
15022;SDS011;19850;49.576;10.880;2022-09-30T20:30:23;0.00;;;0.00;;
15022;SDS011;19850;49.576;10.880;2022-09-30T20:34:30;0.00;;;0.00;;
15022;SDS011;19850;49.576;10.880;2022-09-30T20:38:38;0.00;;;0.00;;
15022;SDS011;19850;49.576;10.880;2022-09-30T20:42:41;0.10;;;0.10;;
15022;SDS011;19850;49.576;10.880;2022-09-30T20:46:45;0.10;;;0.10;;
15022;SDS011;19850;49.576;10.880;2022-09-30T20:50:48;0.10;;;0.10;;
15022;SDS011;19850;49.576;10.880;2022-09-30T20:54:51;0.00;;;0.00;;
15022;SDS011;19850;49.576;10.880;2022-09-30T20:58:54;0.00;;;0.00;;
15022;SDS011;19850;49.576;10.880;2022-09-30T21:02:58;0.00;;;0.00;;
15022;SDS011;19850;49.576;10.880;2022-09-30T21:07:01;0.10;;;0.10;;
15022;SDS011;19850;49.576;10.880;2022-09-30T21:11:04;0.10;;;0.10;;
15022;SDS011;19850;49.576;10.880;2022-09-30T21:15:08;0.10;;;0.10;;
15022;SDS011;19850;49.576;10.880;2022-09-30T21:19:13;0.00;;;0.00;;
15022;SDS011;19850;49.576;10.880;2022-09-30T21:23:16;0.00;;;0.00;;
15022;SDS011;19850;49.576;10.880;2022-09-30T21:27:19;0.10;;;0.10;;
15022;SDS011;19850;49.576;10.880;2022-09-30T21:31:23;0.00;;;0.00;;
15022;SDS011;19850;49.576;10.880;2022-09-30T21:35:29;0.00;;;0.00;;
15022;SDS011;19850;49.576;10.880;2022-09-30T21:39:32;0.00;;;0.00;;
15022;SDS011;19850;49.576;10.880;2022-09-30T21:43:35;0.10;;;0.10;;
15022;SDS011;19850;49.576;10.880;2022-09-30T21:47:39;0.00;;;0.00;;
15022;SDS011;19850;49.576;10.880;2022-09-30T21:51:43;0.03;;;0.03;;
15022;SDS011;19850;49.576;10.880;2022-09-30T21:55:46;0.03;;;0.03;;
15022;SDS011;19850;49.576;10.880;2022-09-30T21:59:49;0.10;;;0.10;;
15022;SDS011;19850;49.576;10.880;2022-09-30T22:03:52;0.00;;;0.00;;
15022;SDS011;19850;49.576;10.880;2022-09-30T22:07:56;0.10;;;0.10;;
15022;SDS011;19850;49.576;10.880;2022-09-30T22:12:01;0.10;;;0.10;;
15022;SDS011;19850;49.576;10.880;2022-09-30T22:16:09;0.10;;;0.10;;
15022;SDS011;19850;49.576;10.880;2022-09-30T22:20:15;0.00;;;0.00;;
15022;SDS011;19850;49.576;10.880;2022-09-30T22:24:21;0.10;;;0.10;;
15022;SDS011;19850;49.576;10.880;2022-09-30T22:28:23;0.10;;;0.10;;
15022;SDS011;19850;49.576;10.880;2022-09-30T22:32:27;0.00;;;0.00;;
15022;SDS011;19850;49.576;10.880;2022-09-30T22:36:29;0.10;;;0.10;;
15022;SDS011;19850;49.576;10.880;2022-09-30T22:40:51;0.00;;;0.00;;
15022;SDS011;19850;49.576;10.880;2022-09-30T22:44:55;0.10;;;0.10;;
15022;SDS011;19850;49.576;10.880;2022-09-30T22:48:58;0.10;;;0.10;;
15022;SDS011;19850;49.576;10.880;2022-09-30T22:53:01;0.10;;;0.10;;
15022;SDS011;19850;49.576;10.880;2022-09-30T22:57:05;0.10;;;0.10;;
15022;SDS011;19850;49.576;10.880;2022-09-30T23:01:10;0.10;;;0.10;;
15022;SDS011;19850;49.576;10.880;2022-09-30T23:05:13;0.10;;;0.10;;
15022;SDS011;19850;49.576;10.880;2022-09-30T23:09:16;0.10;;;0.10;;
15022;SDS011;19850;49.576;10.880;2022-09-30T23:13:22;0.10;;;0.10;;
15022;SDS011;19850;49.576;10.880;2022-09-30T23:17:26;0.10;;;0.10;;
15022;SDS011;19850;49.576;10.880;2022-09-30T23:21:29;0.10;;;0.10;;
15022;SDS011;19850;49.576;10.880;2022-09-30T23:25:32;0.10;;;0.10;;
15022;SDS011;19850;49.576;10.880;2022-09-30T23:29:36;0.10;;;0.10;;
15022;SDS011;19850;49.576;10.880;2022-09-30T23:33:42;0.10;;;0.10;;
15022;SDS011;19850;49.576;10.880;2022-09-30T23:37:48;0.10;;;0.10;;
15022;SDS011;19850;49.576;10.880;2022-09-30T23:41:52;0.10;;;0.10;;
15022;SDS011;19850;49.576;10.880;2022-09-30T23:45:57;0.10;;;0.10;;
15022;SDS011;19850;49.576;10.880;2022-09-30T23:50:00;0.10;;;0.10;;
15022;SDS011;19850;49.576;10.880;2022-09-30T23:54:03;0.07;;;0.07;;
15022;SDS011;19850;49.576;10.880;2022-09-30T23:58:06;0.10;;;0.10;;
